Time;durP1;ratioP1;P1;durP2;ratioP2;P2;SDS_P1;SDS_P2;PMS_P1;PMS_P2;Temp;Humidity;BMP_temperature;BMP_pressure;BME280_temperature;BME280_humidity;BME280_pressure;Samples;Min_cycle;Max_cycle;Signal;HPM_P1;HPM_P2
2022/08/21 00:00:17;;;;;;;11.52;1.83;;;;;;;14.24;87.76;100427.81;5023117;28;20034;-75
2022/08/21 00:03:04;;;;;;;11.13;2.15;;;;;;;14.24;87.41;100432.50;5007658;28;20018;-74
2022/08/21 00:05:31;;;;;;;6.95;1.63;;;;;;;14.22;87.42;100434.72;5039700;28;20029;-74
2022/08/21 00:07:57;;;;;;;8.75;1.77;;;;;;;14.16;87.34;100419.38;5030160;28;20042;-75
2022/08/21 00:10:23;;;;;;;9.15;1.70;;;;;;;14.13;88.11;100416.13;5022669;28;20044;-76
2022/08/21 00:12:49;;;;;;;13.10;2.08;;;;;;;14.05;87.54;100405.72;5030750;28;20067;-76
2022/08/21 00:15:19;;;;;;;11.45;1.90;;;;;;;14.05;87.79;100396.69;5018036;28;20128;-74
2022/08/21 00:17:44;;;;;;;8.55;1.60;;;;;;;14.07;87.76;100397.19;5035437;28;20399;-74
2022/08/21 00:20:12;;;;;;;6.40;1.70;;;;;;;14.07;88.13;100405.44;5029685;28;20021;-74
2022/08/21 00:22:37;;;;;;;10.60;1.77;;;;;;;14.07;88.40;100398.00;5034987;28;20108;-75
2022/08/21 00:25:06;;;;;;;7.82;1.38;;;;;;;14.05;88.04;100397.47;5034763;28;20029;-74
2022/08/21 00:27:32;;;;;;;9.73;2.10;;;;;;;14.03;88.06;100396.97;5035240;28;20060;-75
2022/08/21 00:29:57;;;;;;;6.18;1.52;;;;;;;14.01;88.20;100398.34;5002775;28;20033;-74
2022/08/21 00:32:25;;;;;;;5.72;1.70;;;;;;;14.01;88.11;100396.41;5020924;28;20026;-75
2022/08/21 00:34:52;;;;;;;10.10;2.58;;;;;;;13.93;88.30;100397.88;5035723;28;20029;-75
2022/08/21 00:37:18;;;;;;;7.25;1.38;;;;;;;13.98;88.34;100410.75;5041315;28;20056;-74
2022/08/21 00:39:43;;;;;;;6.60;1.55;;;;;;;13.96;88.02;100410.22;5033694;28;20057;-76
2022/08/21 00:42:09;;;;;;;12.98;2.05;;;;;;;13.91;88.45;100399.25;5019136;28;20029;-74
2022/08/21 00:44:35;;;;;;;8.82;1.50;;;;;;;13.96;88.10;100404.72;5035394;28;20113;-74
2022/08/21 00:47:01;;;;;;;11.30;1.98;;;;;;;13.96;88.35;100408.28;5001413;28;20065;-75
2022/08/21 00:49:26;;;;;;;10.07;1.73;;;;;;;13.94;88.30;100404.19;5018739;28;20067;-75
2022/08/21 00:51:57;;;;;;;10.85;2.13;;;;;;;13.93;88.51;100403.38;5037549;28;20026;-74
2022/08/21 00:54:26;;;;;;;6.95;1.80;;;;;;;13.97;88.20;100403.59;5018195;28;20032;-73
2022/08/21 00:57:07;;;;;;;13.98;2.25;;;;;;;13.99;88.53;100406.06;5015782;28;20028;-73
2022/08/21 00:59:36;;;;;;;7.93;1.95;;;;;;;13.98;88.47;100405.25;5032488;28;20025;-73
2022/08/21 01:02:04;;;;;;;11.60;3.10;;;;;;;13.95;88.38;100401.13;5030243;28;20108;-74
2022/08/21 01:04:29;;;;;;;7.70;1.75;;;;;;;13.92;88.03;100409.16;5035937;28;20375;-74
2022/08/21 01:06:55;;;;;;;8.75;1.80;;;;;;;13.91;88.16;100404.75;5017638;28;20036;-74
2022/08/21 01:09:20;;;;;;;6.70;1.50;;;;;;;13.81;88.53;100389.16;4993261;28;20029;-74
2022/08/21 01:11:46;;;;;;;6.22;1.73;;;;;;;13.82;88.22;100401.81;5015648;28;20033;-74
2022/08/21 01:14:14;;;;;;;8.77;2.00;;;;;;;13.80;88.45;100398.56;5030844;28;20017;-75
2022/08/21 01:16:46;;;;;;;7.63;1.73;;;;;;;13.77;88.85;100399.13;5001993;28;20093;-74
2022/08/21 01:19:13;;;;;;;10.25;2.15;;;;;;;13.70;89.14;100393.94;5031898;28;20045;-75
2022/08/21 01:21:39;;;;;;;11.48;2.53;;;;;;;13.68;88.95;100401.69;5035442;28;20036;-75
2022/08/21 01:24:05;;;;;;;8.57;2.25;;;;;;;13.65;88.93;100396.72;5023253;28;20455;-74
2022/08/21 01:26:34;;;;;;;8.65;2.33;;;;;;;13.66;89.33;100398.38;5022347;28;20034;-75
2022/08/21 01:29:37;;;;;;;22.25;1.92;;;;;;;13.63;89.67;100409.13;5025870;28;20033;-75
2022/08/21 01:32:12;;;;;;;12.20;2.33;;;;;;;13.55;89.19;100418.78;5037809;28;20033;-75
2022/08/21 01:34:40;;;;;;;11.18;1.90;;;;;;;13.51;89.60;100404.00;5047241;28;20032;-74
2022/08/21 01:37:06;;;;;;;11.38;1.95;;;;;;;13.44;89.43;100413.38;5028982;28;20044;-74
2022/08/21 01:39:32;;;;;;;11.60;2.28;;;;;;;13.35;90.17;100398.63;5037173;28;20033;-76
2022/08/21 01:41:57;;;;;;;10.98;2.15;;;;;;;13.35;90.67;100401.34;5026751;28;20048;-76
2022/08/21 01:44:24;;;;;;;6.13;1.77;;;;;;;13.36;90.83;100403.00;5032223;28;20026;-76
2022/08/21 01:46:50;;;;;;;10.57;1.85;;;;;;;13.38;91.13;100398.03;5030116;28;20033;-74
2022/08/21 01:49:17;;;;;;;8.55;2.03;;;;;;;13.38;91.25;100403.53;5028535;28;20105;-76
2022/08/21 01:51:43;;;;;;;7.75;2.60;;;;;;;13.34;91.35;100398.88;5030764;28;20472;-75
2022/08/21 01:54:09;;;;;;;9.55;1.95;;;;;;;13.28;91.34;100409.06;5031545;28;20027;-74
2022/08/21 01:56:41;;;;;;;8.07;1.98;;;;;;;13.23;91.94;100403.63;5024280;28;20033;-73
2022/08/21 01:59:07;;;;;;;10.40;1.70;;;;;;;13.04;91.70;100389.69;5034321;28;20018;-75
2022/08/21 02:01:32;;;;;;;5.97;1.65;;;;;;;13.13;91.66;100412.72;5033178;28;20129;-74
2022/08/21 02:03:59;;;;;;;10.30;1.80;;;;;;;13.05;92.54;100416.06;5033707;28;20440;-74
2022/08/21 02:06:25;;;;;;;5.68;1.50;;;;;;;12.98;92.03;100413.63;5035456;28;20440;-74
2022/08/21 02:08:51;;;;;;;8.73;1.73;;;;;;;12.94;92.13;100409.81;5041407;28;20109;-74
2022/08/21 02:11:16;;;;;;;8.82;1.80;;;;;;;12.94;92.24;100412.56;5020217;28;20028;-74
2022/08/21 02:13:42;;;;;;;12.95;1.95;;;;;;;12.95;92.76;100407.88;5022305;28;20138;-75
2022/08/21 02:16:08;;;;;;;10.88;1.90;;;;;;;12.95;92.90;100400.44;5044070;28;20040;-73
2022/08/21 02:18:34;;;;;;;10.70;2.10;;;;;;;12.96;92.86;100404.84;5041481;28;20484;-74
2022/08/21 02:21:00;;;;;;;5.47;1.77;;;;;;;12.97;92.99;100398.25;5034031;28;20036;-75
2022/08/21 02:23:26;;;;;;;6.03;1.55;;;;;;;12.93;93.01;100392.50;5033551;28;20034;-74
2022/08/21 02:25:51;;;;;;;5.63;1.38;;;;;;;12.93;93.10;100391.69;5034545;28;20109;-74
2022/08/21 02:28:17;;;;;;;8.43;1.65;;;;;;;12.91;93.18;100383.75;5021730;28;20076;-75
2022/08/21 02:30:45;;;;;;;8.75;1.80;;;;;;;12.91;93.05;100382.94;5005082;28;20392;-74
2022/08/21 02:33:12;;;;;;;12.80;1.88;;;;;;;12.88;93.38;100375.28;5036346;28;20028;-75
2022/08/21 02:35:41;;;;;;;6.60;1.30;;;;;;;12.87;93.52;100379.09;5040200;28;20080;-73
2022/08/21 02:38:11;;;;;;;9.63;1.90;;;;;;;12.85;93.59;100373.06;5032615;28;20091;-74
2022/08/21 02:40:38;;;;;;;5.25;1.75;;;;;;;12.85;93.35;100373.06;5033074;28;20050;-73
2022/08/21 02:43:06;;;;;;;6.03;1.40;;;;;;;12.82;93.45;100373.63;5019471;28;20026;-73
2022/08/21 02:45:32;;;;;;;9.63;1.95;;;;;;;12.84;93.82;100371.44;5017604;28;20112;-75
2022/08/21 02:48:05;;;;;;;7.68;2.45;;;;;;;12.81;94.04;100372.00;5020739;28;20056;-75
2022/08/21 02:50:33;;;;;;;6.72;2.03;;;;;;;12.75;93.75;100374.78;5003677;28;20029;-74
2022/08/21 02:52:59;;;;;;;6.85;1.88;;;;;;;12.76;93.84;100370.09;5044269;28;20109;-74
2022/08/21 02:55:27;;;;;;;8.90;2.10;;;;;;;12.68;94.27;100379.75;5040156;28;20044;-74
2022/08/21 02:57:55;;;;;;;12.00;1.63;;;;;;;12.68;93.81;100379.75;5018477;28;20020;-74
2022/08/21 03:00:22;;;;;;;4.40;1.50;;;;;;;12.63;93.84;100387.16;5045796;28;20029;-74
2022/08/21 03:02:49;;;;;;;10.07;1.95;;;;;;;12.58;93.70;100393.50;5038831;28;20047;-73
2022/08/21 03:05:15;;;;;;;7.18;1.90;;;;;;;12.56;94.43;100398.47;5041754;28;20407;-74
2022/08/21 03:07:42;;;;;;;9.13;1.42;;;;;;;12.53;94.43;100393.53;5039357;28;20429;-75
2022/08/21 03:10:09;;;;;;;6.47;1.75;;;;;;;12.56;94.18;100404.75;5027133;28;20056;-74
2022/08/21 03:12:35;;;;;;;6.10;1.67;;;;;;;12.53;94.29;100405.31;5029350;28;20025;-74
2022/08/21 03:15:03;;;;;;;8.32;1.70;;;;;;;12.53;94.64;100405.31;5027743;28;20052;-75
2022/08/21 03:17:29;;;;;;;6.53;1.65;;;;;;;12.55;94.36;100407.78;5045211;28;20103;-74
2022/08/21 03:19:54;;;;;;;3.95;1.50;;;;;;;12.52;94.18;100400.91;5025696;28;20421;-74
2022/08/21 03:22:20;;;;;;;1.85;0.90;;;;;;;12.46;93.93;100384.78;5035538;28;20060;-74
2022/08/21 03:24:45;;;;;;;3.25;1.00;;;;;;;12.48;93.77;100396.28;5009223;28;20037;-73
2022/08/21 03:27:12;;;;;;;1.33;0.70;;;;;;;12.45;94.34;100396.84;5034845;28;20041;-74
2022/08/21 03:29:38;;;;;;;1.50;0.70;;;;;;;12.49;93.78;100389.69;5024584;28;20468;-73
2022/08/21 03:32:04;;;;;;;2.28;0.70;;;;;;;12.51;93.82;100384.75;5020188;28;20031;-74
2022/08/21 03:34:29;;;;;;;4.63;0.60;;;;;;;12.49;93.98;100373.25;5017740;28;20025;-75
2022/08/21 03:36:57;;;;;;;2.78;0.93;;;;;;;12.60;93.75;100377.59;5046963;28;20033;-75
2022/08/21 03:39:22;;;;;;;3.03;0.88;;;;;;;12.63;93.74;100371.53;5037664;28;20724;-73
2022/08/21 03:41:48;;;;;;;3.55;0.98;;;;;;;12.66;93.16;100370.13;5023097;28;20117;-75
2022/08/21 03:44:13;;;;;;;3.08;0.73;;;;;;;12.67;93.21;100360.81;5018186;28;20088;-71
2022/08/21 03:46:39;;;;;;;3.88;1.20;;;;;;;12.77;92.63;100368.19;5000493;28;20025;-74
2022/08/21 03:49:06;;;;;;;5.45;1.38;;;;;;;12.84;92.33;100368.69;5039108;28;20067;-74
2022/08/21 03:51:33;;;;;;;5.82;1.00;;;;;;;12.86;92.20;100352.75;5036168;28;20025;-77
2022/08/21 03:53:59;;;;;;;6.82;1.58;;;;;;;12.90;92.29;100359.34;5038382;28;20021;-73
2022/08/21 03:56:24;;;;;;;3.83;1.05;;;;;;;12.88;91.88;100353.31;5044893;28;20731;-75
2022/08/21 03:58:49;;;;;;;4.78;1.33;;;;;;;12.86;91.99;100350.00;5039182;28;20021;-75
2022/08/21 04:01:15;;;;;;;4.55;1.17;;;;;;;12.84;91.52;100361.28;5005186;28;20408;-73
2022/08/21 04:03:40;;;;;;;2.60;0.75;;;;;;;12.78;91.62;100372.59;5045432;28;20029;-74
2022/08/21 04:06:06;;;;;;;4.82;1.58;;;;;;;12.75;91.50;100369.28;5035251;28;20034;-74
2022/08/21 04:08:31;;;;;;;4.35;0.95;;;;;;;12.73;91.56;100371.50;5041322;28;20145;-74
2022/08/21 04:10:58;;;;;;;1.98;1.02;;;;;;;12.67;91.78;100383.56;5022757;28;20079;-77
2022/08/21 04:13:24;;;;;;;0.52;0.50;;;;;;;12.63;92.04;100390.75;5036281;28;20074;-75
2022/08/21 04:15:50;;;;;;;1.45;0.60;;;;;;;12.58;91.66;100379.78;5023885;28;20030;-74
2022/08/21 04:18:15;;;;;;;0.70;0.50;;;;;;;12.61;92.16;100381.97;5016629;28;20052;-76
2022/08/21 04:20:43;;;;;;;1.98;0.60;;;;;;;12.64;91.53;100364.13;5023972;28;20045;-74
2022/08/21 04:23:08;;;;;;;2.88;0.47;;;;;;;12.68;91.23;100368.75;5021253;28;20124;-74
2022/08/21 04:25:34;;;;;;;0.45;0.30;;;;;;;12.70;91.24;100371.22;5019478;28;20061;-74
2022/08/21 04:27:59;;;;;;;1.70;0.50;;;;;;;12.72;91.65;100372.59;5040962;28;20025;-75
2022/08/21 04:30:25;;;;;;;0.30;0.30;;;;;;;12.75;90.84;100373.97;5036792;28;20030;-74
2022/08/21 04:32:51;;;;;;;0.63;0.30;;;;;;;12.75;91.16;100380.25;5035092;28;20116;-74
2022/08/21 04:35:20;;;;;;;0.22;0.20;;;;;;;12.74;90.97;100373.13;5026781;28;20052;-75
2022/08/21 04:37:46;;;;;;;0.20;0.20;;;;;;;12.71;90.56;100373.69;5041433;28;20049;-75
2022/08/21 04:40:13;;;;;;;0.70;0.40;;;;;;;12.67;90.60;100367.13;5053422;28;20116;-74
2022/08/21 04:42:51;;;;;;;0.57;0.30;;;;;;;12.69;91.17;100380.56;5034757;28;20037;-73
2022/08/21 04:45:28;;;;;;;0.30;0.28;;;;;;;12.70;90.09;100383.03;5045367;28;20136;-74
2022/08/21 04:47:58;;;;;;;0.32;0.30;;;;;;;12.72;90.63;100389.06;5035651;28;20024;-74
2022/08/21 04:50:29;;;;;;;1.15;0.68;;;;;;;12.74;90.67;100395.06;5039622;28;20032;-73
2022/08/21 04:52:56;;;;;;;0.63;0.30;;;;;;;12.84;90.44;100398.88;5037588;28;20025;-75
2022/08/21 04:55:23;;;;;;;0.50;0.30;;;;;;;12.90;89.69;100397.75;5043197;28;20511;-73
2022/08/21 04:57:51;;;;;;;0.50;0.32;;;;;;;13.02;89.64;100402.91;5027188;28;20033;-74
2022/08/21 05:00:18;;;;;;;0.30;0.20;;;;;;;13.07;89.11;100414.69;5036857;28;20080;-74
2022/08/21 05:02:44;;;;;;;0.52;0.20;;;;;;;13.17;88.84;100418.47;5020077;28;20034;-73
2022/08/21 05:05:10;;;;;;;0.93;0.38;;;;;;;13.16;88.89;100408.59;5034319;28;20029;-74
2022/08/21 05:07:36;;;;;;;0.35;0.20;;;;;;;13.21;88.59;100417.59;5024373;28;20035;-74
2022/08/21 05:10:03;;;;;;;0.52;0.32;;;;;;;13.23;88.60;100422.84;5039716;28;20049;-73
2022/08/21 05:12:30;;;;;;;0.40;0.30;;;;;;;13.28;88.48;100431.03;5040083;28;20152;-73
2022/08/21 05:14:55;;;;;;;1.95;0.35;;;;;;;13.31;88.37;100435.94;5039493;28;20067;-74
2022/08/21 05:17:21;;;;;;;1.10;0.40;;;;;;;13.34;87.67;100440.91;5033136;28;20456;-73
2022/08/21 05:19:46;;;;;;;1.25;0.52;;;;;;;13.39;87.92;100449.13;5012722;28;20037;-73
2022/08/21 05:22:19;;;;;;;1.15;0.45;;;;;;;13.40;87.23;100453.53;5014437;28;20058;-74
2022/08/21 05:24:44;;;;;;;1.75;0.63;;;;;;;13.43;87.33;100461.19;5015878;28;20068;-74
2022/08/21 05:27:10;;;;;;;3.72;1.27;;;;;;;13.47;86.95;100455.94;5000100;28;20034;-75
2022/08/21 05:29:35;;;;;;;3.45;0.98;;;;;;;13.52;86.92;100447.69;4997761;28;20044;-74
2022/08/21 05:32:01;;;;;;;1.88;0.80;;;;;;;13.58;86.82;100453.94;5015337;28;20045;-76
2022/08/21 05:34:26;;;;;;;3.58;1.10;;;;;;;13.61;86.11;100451.44;4997266;28;20030;-74
2022/08/21 05:36:52;;;;;;;6.47;1.38;;;;;;;13.68;85.89;100444.81;4999752;28;20033;-74
2022/08/21 05:39:17;;;;;;;2.33;1.05;;;;;;;13.77;85.62;100446.66;5011470;28;20515;-73
2022/08/21 05:41:42;;;;;;;4.63;0.85;;;;;;;13.88;85.60;100432.84;5017371;28;20030;-74
2022/08/21 05:44:08;;;;;;;4.22;0.88;;;;;;;14.01;84.96;100432.16;5022963;28;20026;-75
2022/08/21 05:46:33;;;;;;;2.78;0.88;;;;;;;14.21;84.57;100427.59;4996741;28;20463;-74
2022/08/21 05:48:59;;;;;;;5.05;1.33;;;;;;;14.41;83.94;100412.78;5017342;28;20022;-74
2022/08/21 05:51:24;;;;;;;1.50;0.80;;;;;;;14.66;82.98;100417.22;5004231;28;20034;-75
2022/08/21 05:53:50;;;;;;;1.30;0.60;;;;;;;14.93;82.54;100424.03;5018372;28;20038;-75
2022/08/21 05:56:16;;;;;;;0.77;0.50;;;;;;;15.15;81.50;100406.94;5024088;28;20030;-74
2022/08/21 05:58:42;;;;;;;0.45;0.40;;;;;;;15.34;80.94;100415.19;5005855;28;20175;-74
2022/08/21 06:01:15;;;;;;;0.80;0.40;;;;;;;15.43;80.47;100405.13;5014556;28;20060;-73
2022/08/21 06:03:42;;;;;;;4.28;0.55;;;;;;;15.42;79.63;100409.03;4979382;28;20041;-73
2022/08/21 06:06:09;;;;;;;4.60;1.13;;;;;;;15.17;79.69;100401.94;5018036;28;20028;-75
2022/08/21 06:08:36;;;;;;;3.45;1.17;;;;;;;14.91;80.13;100401.47;5024107;28;20029;-74
2022/08/21 06:11:03;;;;;;;5.68;1.58;;;;;;;14.68;80.38;100394.91;5017171;28;20042;-73
2022/08/21 06:13:29;;;;;;;7.55;1.70;;;;;;;14.56;80.72;100406.28;5006746;28;20038;-73
2022/08/21 06:16:13;;;;;;;4.82;1.20;;;;;;;14.45;80.64;100409.16;5021258;28;20149;-74
2022/08/21 06:18:39;;;;;;;3.93;1.20;;;;;;;14.43;81.19;100422.41;5038455;28;20071;-74
2022/08/21 06:21:06;;;;;;;12.93;1.70;;;;;;;14.42;81.02;100420.75;5021252;28;20538;-75
2022/08/21 06:23:33;;;;;;;4.13;1.25;;;;;;;14.40;80.77;100428.47;5040329;28;20192;-76
2022/08/21 06:25:58;;;;;;;5.30;1.60;;;;;;;14.37;80.95;100423.56;5020115;28;20549;-76
2022/08/21 06:28:24;;;;;;;4.63;1.42;;;;;;;14.38;80.81;100425.19;5041205;28;20053;-74
2022/08/21 06:30:58;;;;;;;5.00;1.60;;;;;;;14.38;80.98;100424.38;5037723;28;20048;-74
2022/08/21 06:33:24;;;;;;;2.55;0.85;;;;;;;14.37;81.13;100423.56;5037289;28;20056;-75
2022/08/21 06:35:50;;;;;;;3.42;0.98;;;;;;;14.37;80.98;100409.81;5025191;28;20025;-74
2022/08/21 06:38:16;;;;;;;5.05;1.52;;;;;;;14.39;81.04;100404.81;5029185;28;20048;-73
2022/08/21 06:40:41;;;;;;;5.28;1.20;;;;;;;14.39;80.86;100399.31;5022071;28;20044;-77
2022/08/21 06:43:10;;;;;;;4.40;1.23;;;;;;;14.48;80.88;100392.09;5041120;28;20807;-74
2022/08/21 06:45:36;;;;;;;4.78;1.30;;;;;;;14.59;80.36;100387.25;5039058;28;20021;-73
2022/08/21 06:48:02;;;;;;;7.60;1.40;;;;;;;14.66;79.94;100389.72;5038073;28;20116;-74
2022/08/21 06:50:28;;;;;;;7.18;1.45;;;;;;;14.72;80.01;100387.69;5033729;28;21504;-75
2022/08/21 06:53:06;;;;;;;3.88;1.35;;;;;;;14.80;79.89;100382.34;5039535;28;20028;-76
2022/08/21 06:55:32;;;;;;;3.38;1.10;;;;;;;14.93;79.46;100385.50;5021538;28;20033;-75
2022/08/21 06:57:58;;;;;;;5.38;1.20;;;;;;;15.03;79.14;100371.59;5039699;28;20479;-75
2022/08/21 07:00:24;;;;;;;4.00;1.20;;;;;;;15.10;79.01;100374.78;5035364;28;20025;-74
2022/08/21 07:02:49;;;;;;;3.08;1.05;;;;;;;15.21;78.58;100358.09;5035879;28;20037;-75
2022/08/21 07:05:15;;;;;;;5.35;1.17;;;;;;;15.23;77.99;100356.69;5033792;28;20033;-76
2022/08/21 07:07:40;;;;;;;2.50;0.77;;;;;;;15.43;78.11;100350.03;5031381;28;20109;-74
2022/08/21 07:10:06;;;;;;;2.05;0.85;;;;;;;15.84;77.22;100363.16;5004306;28;20570;-75
2022/08/21 07:12:32;;;;;;;3.13;1.00;;;;;;;16.31;75.75;100367.81;5035970;28;20021;-74
2022/08/21 07:14:58;;;;;;;1.27;0.50;;;;;;;16.76;74.74;100373.50;5044202;28;20491;-74
2022/08/21 07:17:23;;;;;;;1.08;0.43;;;;;;;17.13;73.57;100368.03;5033285;28;20024;-74
2022/08/21 07:19:51;;;;;;;1.42;0.60;;;;;;;17.37;72.57;100365.81;5026535;28;20707;-75
2022/08/21 07:22:20;;;;;;;6.18;1.20;;;;;;;17.33;71.85;100358.47;5012509;28;20125;-74
2022/08/21 07:24:45;;;;;;;2.97;0.95;;;;;;;17.27;71.67;100358.59;5022009;28;20426;-74
2022/08/21 07:27:11;;;;;;;1.30;0.60;;;;;;;17.25;71.40;100374.66;5023694;28;20037;-75
2022/08/21 07:29:37;;;;;;;7.22;0.88;;;;;;;17.33;71.09;100364.00;4997733;28;20113;-73
2022/08/21 07:32:03;;;;;;;5.32;1.35;;;;;;;17.39;71.18;100362.72;4997128;28;20038;-74
2022/08/21 07:34:28;;;;;;;5.72;1.52;;;;;;;17.59;70.89;100370.50;5027244;28;20034;-74
2022/08/21 07:36:54;;;;;;;6.18;1.52;;;;;;;17.76;68.77;100374.56;4988289;28;20041;-75
2022/08/21 07:39:19;;;;;;;9.27;1.48;;;;;;;17.74;67.79;100379.56;5015274;28;20018;-74
2022/08/21 07:41:44;;;;;;;9.20;1.27;;;;;;;17.52;67.66;100395.06;4997487;28;20030;-74
2022/08/21 07:44:10;;;;;;;5.95;1.83;;;;;;;17.26;68.89;100392.06;4979799;28;20018;-74
2022/08/21 07:46:36;;;;;;;6.18;1.52;;;;;;;17.14;69.82;100400.88;5022671;28;20092;-76
2022/08/21 07:49:01;;;;;;;8.07;1.38;;;;;;;17.13;70.49;100393.75;4982603;28;20022;-77
2022/08/21 07:51:28;;;;;;;7.88;1.65;;;;;;;17.26;70.21;100405.88;5013503;28;20029;-74
2022/08/21 07:53:56;;;;;;;11.60;1.92;;;;;;;17.66;68.95;100405.22;5000006;28;20366;-75
2022/08/21 07:56:22;;;;;;;7.75;1.35;;;;;;;18.08;67.27;100400.31;4997306;28;20052;-74
2022/08/21 07:58:48;;;;;;;8.82;1.50;;;;;;;18.49;65.85;100404.72;5020670;28;20529;-74
2022/08/21 08:01:13;;;;;;;6.72;1.45;;;;;;;18.78;63.83;100400.59;5017281;28;20022;-75
2022/08/21 08:03:39;;;;;;;7.15;1.65;;;;;;;18.67;63.49;100411.97;5005903;28;20052;-74
2022/08/21 08:06:08;;;;;;;4.68;1.20;;;;;;;18.56;64.23;100409.78;4997136;28;20034;-74
2022/08/21 08:08:34;;;;;;;8.52;2.08;;;;;;;18.47;64.26;100407.81;4998255;28;20041;-74
2022/08/21 08:11:01;;;;;;;8.60;1.40;;;;;;;18.49;64.89;100416.63;4980294;28;20030;-74
2022/08/21 08:13:26;;;;;;;8.15;1.05;;;;;;;18.52;64.51;100425.44;5015033;28;20030;-74
2022/08/21 08:15:52;;;;;;;9.32;1.65;;;;;;;18.47;63.92;100434.66;5016734;28;20033;-74
2022/08/21 08:18:19;;;;;;;7.75;1.38;;;;;;;18.39;64.19;100427.97;5015860;28;20048;-74
2022/08/21 08:20:47;;;;;;;8.68;1.30;;;;;;;18.33;63.24;100429.25;5003424;28;20065;-75
2022/08/21 08:23:14;;;;;;;7.18;1.42;;;;;;;18.41;63.75;100434.03;5012986;28;20081;-74
2022/08/21 08:25:41;;;;;;;8.55;1.17;;;;;;;18.55;63.29;100435.88;5025942;28;20116;-73
2022/08/21 08:28:06;;;;;;;8.20;1.40;;;;;;;18.58;63.10;100452.66;5015808;28;20037;-74
2022/08/21 08:30:32;;;;;;;8.90;1.20;;;;;;;18.67;63.13;100434.13;5018482;28;20392;-74
2022/08/21 08:32:59;;;;;;;4.30;1.25;;;;;;;18.80;62.89;100442.63;5013165;28;20022;-73
2022/08/21 08:35:25;;;;;;;3.78;1.10;;;;;;;18.96;62.93;100445.81;5016460;28;20049;-74
2022/08/21 08:37:51;;;;;;;8.60;1.27;;;;;;;19.13;62.20;100445.03;4997831;28;20037;-75
2022/08/21 08:40:39;;;;;;;4.53;1.00;;;;;;;19.47;61.42;100448.97;5013951;28;20034;-74
2022/08/21 08:43:05;;;;;;;5.18;0.82;;;;;;;20.03;60.19;100454.66;5013095;28;20424;-74
2022/08/21 08:45:36;;;;;;;7.82;1.40;;;;;;;20.26;58.46;100452.50;4989994;28;20068;-76
2022/08/21 08:48:05;;;;;;;5.07;0.90;;;;;;;20.32;57.72;100451.16;5006485;28;20067;-75
2022/08/21 08:50:46;;;;;;;3.45;0.80;;;;;;;20.66;57.54;100454.16;5021421;28;20033;-75
2022/08/21 08:53:22;;;;;;;7.20;1.05;;;;;;;20.75;55.45;100458.56;5007399;28;20021;-73
2022/08/21 08:55:50;;;;;;;5.43;1.80;;;;;;;20.75;55.52;100457.75;5024652;28;20034;-74
2022/08/21 08:58:24;;;;;;;8.90;1.42;;;;;;;20.78;55.37;100450.69;4994517;28;20041;-76
2022/08/21 09:00:51;;;;;;;2.90;0.75;;;;;;;20.97;55.13;100453.03;5014089;28;20032;-75
2022/08/21 09:03:17;;;;;;;4.85;1.20;;;;;;;21.88;52.89;100447.00;5013746;28;20116;-74
2022/08/21 09:05:49;;;;;;;4.72;1.80;;;;;;;24.68;47.72;100445.59;5012008;28;20105;-74
2022/08/21 09:08:32;;;;;;;2.40;0.80;;;;;;;27.71;40.64;100443.59;5015460;28;20026;-74
2022/08/21 09:11:11;;;;;;;2.38;0.90;;;;;;;30.30;36.05;100450.25;5015681;28;20021;-74
2022/08/21 09:13:51;;;;;;;2.50;0.93;;;;;;;31.36;31.53;100449.00;5012041;28;20357;-74
2022/08/21 09:16:57;;;;;;;6.50;1.17;;;;;;;31.40;31.31;100447.75;5012265;28;20101;-74
2022/08/21 09:19:53;;;;;;;7.65;1.38;;;;;;;31.18;31.26;100454.69;5030855;28;20041;-74
2022/08/21 09:22:45;;;;;;;4.93;0.95;;;;;;;32.03;29.94;100444.25;5043350;28;20047;-74
2022/08/21 09:25:20;;;;;;;4.82;1.15;;;;;;;34.14;26.42;100442.56;5015414;28;20024;-75
2022/08/21 09:27:48;;;;;;;6.50;1.17;;;;;;;34.08;27.38;100447.09;5035815;28;20105;-75
2022/08/21 09:30:14;;;;;;;5.60;0.90;;;;;;;34.66;27.20;100435.66;5034987;28;20059;-73
2022/08/21 09:32:41;;;;;;;5.28;1.35;;;;;;;34.37;26.85;100424.78;5039446;28;20057;-75
2022/08/21 09:35:22;;;;;;;5.60;1.00;;;;;;;33.16;26.80;100416.66;5004588;28;20026;-73
2022/08/21 09:38:10;;;;;;;6.45;1.30;;;;;;;33.74;25.90;100428.13;5036096;28;20018;-75
2022/08/21 09:40:47;;;;;;;3.65;1.08;;;;;;;33.02;25.82;100418.41;5014709;28;20095;-73
2022/08/21 09:43:21;;;;;;;4.18;1.30;;;;;;;31.85;28.23;100408.41;5034545;28;20056;-74
2022/08/21 09:45:49;;;;;;;5.43;1.17;;;;;;;30.88;29.16;100416.41;5036809;28;20638;-74
2022/08/21 09:48:19;;;;;;;3.45;1.20;;;;;;;29.90;30.28;100415.53;5034718;28;20059;-72
2022/08/21 09:50:47;;;;;;;4.75;1.05;;;;;;;30.75;29.86;100419.66;5027058;28;20108;-73
2022/08/21 09:53:22;;;;;;;4.50;1.05;;;;;;;32.88;27.07;100422.22;5013437;28;20086;-74
2022/08/21 09:58:38;;;;;;;8.98;1.55;;;;;;;32.95;26.46;100429.03;5032042;28;20032;-75
2022/08/21 10:01:06;;;;;;;4.55;0.90;;;;;;;34.45;23.79;100428.31;5025761;28;20108;-74
2022/08/21 10:03:32;;;;;;;3.08;1.00;;;;;;;34.95;23.37;100423.81;5041125;28;20397;-74
2022/08/21 10:06:09;;;;;;;5.07;1.08;;;;;;;35.76;21.72;100430.28;5035504;28;20044;-74
2022/08/21 10:08:40;;;;;;;6.03;1.23;;;;;;;33.45;23.85;100428.47;5034468;28;20117;-74
2022/08/21 10:11:12;;;;;;;3.05;1.10;;;;;;;31.37;26.20;100417.50;5031516;28;20125;-73
2022/08/21 10:13:47;;;;;;;7.18;1.40;;;;;;;31.13;27.52;100434.13;5036489;28;20036;-72
2022/08/21 10:16:40;;;;;;;3.17;0.95;;;;;;;31.45;26.71;100433.22;5014106;28;20026;-73
2022/08/21 10:19:33;;;;;;;3.57;0.90;;;;;;;31.04;27.74;100430.91;5019198;28;20084;-73
2022/08/21 10:22:22;;;;;;;6.28;1.50;;;;;;;30.51;27.55;100420.47;5010782;28;20299;-74
2022/08/21 10:25:31;;;;;;;3.60;0.90;;;;;;;33.86;25.06;100421.91;5014935;28;20037;-73
2022/08/21 10:28:03;;;;;;;4.93;1.13;;;;;;;34.67;21.99;100425.09;4999680;28;20105;-73
2022/08/21 10:30:35;;;;;;;6.05;1.30;;;;;;;34.67;22.63;100430.75;5014677;28;20018;-74
2022/08/21 10:33:07;;;;;;;2.47;0.85;;;;;;;36.93;21.52;100425.06;5012066;28;20096;-73
2022/08/21 10:35:49;;;;;;;5.20;1.38;;;;;;;39.18;18.38;100431.06;5018028;28;20034;-73
2022/08/21 10:38:41;;;;;;;4.07;1.20;;;;;;;39.44;18.27;100426.81;5022518;28;20017;-74
2022/08/21 10:41:10;;;;;;;4.03;1.20;;;;;;;38.67;19.23;100421.41;5018443;28;20022;-74
2022/08/21 10:44:28;;;;;;;1.80;0.80;;;;;;;39.38;18.98;100425.81;5016811;28;20030;-73
2022/08/21 10:47:16;;;;;;;6.43;1.60;;;;;;;41.01;16.77;100422.91;4993601;28;20499;-73
2022/08/21 10:49:53;;;;;;;5.30;1.27;;;;;;;42.97;14.87;100429.47;5000938;28;20045;-74
2022/08/21 10:52:21;;;;;;;3.15;1.10;;;;;;;44.62;15.00;100428.78;5015489;28;20030;-73
2022/08/21 10:55:10;;;;;;;4.38;1.10;;;;;;;46.43;12.63;100423.91;5014416;28;20089;-74
2022/08/21 10:57:54;;;;;;;4.40;1.25;;;;;;;44.27;13.44;100415.25;5016359;28;20081;-73
2022/08/21 11:00:27;;;;;;;5.22;1.60;;;;;;;45.09;13.36;100405.78;5013190;28;20029;-74
2022/08/21 11:03:02;;;;;;;3.97;1.40;;;;;;;46.64;13.08;100398.56;5016747;28;20029;-73
2022/08/21 11:05:35;;;;;;;2.85;1.23;;;;;;;46.99;12.73;100393.66;5018195;28;20084;-71
2022/08/21 11:08:12;;;;;;;2.47;1.10;;;;;;;48.67;12.51;100399.00;5019857;28;20026;-74
2022/08/21 11:10:55;;;;;;;5.28;1.75;;;;;;;51.05;9.42;100394.56;5007118;28;20030;-74
2022/08/21 11:13:44;;;;;;;2.90;1.23;;;;;;;51.97;10.43;100394.59;5000040;28;20500;-74
2022/08/21 11:16:12;;;;;;;2.80;1.00;;;;;;;53.71;8.17;100402.88;5014722;28;20283;-74
2022/08/21 11:18:44;;;;;;;3.50;1.55;;;;;;;52.41;8.54;100392.13;5019591;28;20042;-73
2022/08/21 11:21:27;;;;;;;2.90;1.23;;;;;;;52.22;8.86;100391.47;5015050;28;20064;-75
2022/08/21 11:24:13;;;;;;;5.43;1.40;;;;;;;52.48;8.33;100385.63;5013921;28;20053;-74
2022/08/21 11:26:46;;;;;;;4.32;1.40;;;;;;;45.92;10.94;100368.72;5015513;28;20060;-74
2022/08/21 11:29:19;;;;;;;4.38;1.38;;;;;;;42.05;14.14;100371.31;5027288;28;20084;-75
2022/08/21 11:31:56;;;;;;;2.70;1.20;;;;;;;38.63;16.76;100369.28;5010495;28;20037;-74
2022/08/21 11:34:51;;;;;;;3.17;1.30;;;;;;;36.75;19.23;100359.19;5012843;28;20014;-74
2022/08/21 11:37:25;;;;;;;8.82;2.50;;;;;;;36.24;20.31;100363.31;5017001;28;20087;-74